sensor_id;sensor_type;location;lat;lon;timestamp;P1;durP1;ratioP1;P2;durP2;ratioP2
18280;SDS011;9266;51.132;17.062;2022-07-29T00:01:13;7.47;;;3.63;;
18280;SDS011;9266;51.132;17.062;2022-07-29T00:03:41;6.47;;;3.33;;
18280;SDS011;9266;51.132;17.062;2022-07-29T00:06:08;4.73;;;2.87;;
18280;SDS011;9266;51.132;17.062;2022-07-29T00:08:36;7.87;;;3.30;;
18280;SDS011;9266;51.132;17.062;2022-07-29T00:11:03;7.43;;;2.93;;
18280;SDS011;9266;51.132;17.062;2022-07-29T00:13:32;7.13;;;3.17;;
18280;SDS011;9266;51.132;17.062;2022-07-29T00:15:59;4.00;;;2.83;;
18280;SDS011;9266;51.132;17.062;2022-07-29T00:18:26;5.40;;;2.90;;
18280;SDS011;9266;51.132;17.062;2022-07-29T00:20:53;6.20;;;3.17;;
18280;SDS011;9266;51.132;17.062;2022-07-29T00:23:20;6.17;;;3.10;;
18280;SDS011;9266;51.132;17.062;2022-07-29T00:25:48;7.13;;;2.93;;
18280;SDS011;9266;51.132;17.062;2022-07-29T00:28:15;5.23;;;2.83;;
18280;SDS011;9266;51.132;17.062;2022-07-29T00:30:43;4.00;;;2.77;;
18280;SDS011;9266;51.132;17.062;2022-07-29T00:33:10;5.50;;;2.90;;
18280;SDS011;9266;51.132;17.062;2022-07-29T00:35:37;5.63;;;3.60;;
18280;SDS011;9266;51.132;17.062;2022-07-29T00:38:10;5.90;;;3.13;;
18280;SDS011;9266;51.132;17.062;2022-07-29T00:40:37;5.87;;;3.40;;
18280;SDS011;9266;51.132;17.062;2022-07-29T00:43:05;5.77;;;3.47;;
18280;SDS011;9266;51.132;17.062;2022-07-29T00:45:32;3.97;;;2.70;;
18280;SDS011;9266;51.132;17.062;2022-07-29T00:48:01;8.70;;;4.00;;
18280;SDS011;9266;51.132;17.062;2022-07-29T00:50:28;5.00;;;3.63;;
18280;SDS011;9266;51.132;17.062;2022-07-29T00:52:55;6.17;;;3.57;;
18280;SDS011;9266;51.132;17.062;2022-07-29T00:55:22;5.23;;;3.20;;
18280;SDS011;9266;51.132;17.062;2022-07-29T00:57:50;4.07;;;3.17;;
18280;SDS011;9266;51.132;17.062;2022-07-29T01:00:19;8.00;;;3.37;;
18280;SDS011;9266;51.132;17.062;2022-07-29T01:02:47;3.83;;;3.07;;
18280;SDS011;9266;51.132;17.062;2022-07-29T01:05:16;8.07;;;3.30;;
18280;SDS011;9266;51.132;17.062;2022-07-29T01:07:44;4.40;;;3.10;;
18280;SDS011;9266;51.132;17.062;2022-07-29T01:10:15;5.70;;;3.03;;
18280;SDS011;9266;51.132;17.062;2022-07-29T01:12:44;4.47;;;3.27;;
18280;SDS011;9266;51.132;17.062;2022-07-29T01:15:14;3.70;;;3.13;;
18280;SDS011;9266;51.132;17.062;2022-07-29T01:17:43;6.03;;;3.40;;
18280;SDS011;9266;51.132;17.062;2022-07-29T01:20:14;5.53;;;3.50;;
18280;SDS011;9266;51.132;17.062;2022-07-29T01:22:53;5.70;;;3.60;;
18280;SDS011;9266;51.132;17.062;2022-07-29T01:28:49;5.90;;;3.10;;
18280;SDS011;9266;51.132;17.062;2022-07-29T01:31:27;7.83;;;3.43;;
18280;SDS011;9266;51.132;17.062;2022-07-29T01:34:02;7.30;;;3.57;;
18280;SDS011;9266;51.132;17.062;2022-07-29T01:36:35;6.67;;;3.57;;
18280;SDS011;9266;51.132;17.062;2022-07-29T01:39:07;9.07;;;3.13;;
18280;SDS011;9266;51.132;17.062;2022-07-29T01:41:38;5.93;;;3.60;;
18280;SDS011;9266;51.132;17.062;2022-07-29T01:44:17;6.60;;;3.50;;
18280;SDS011;9266;51.132;17.062;2022-07-29T01:46:49;4.93;;;3.63;;
18280;SDS011;9266;51.132;17.062;2022-07-29T01:49:21;5.20;;;3.70;;
18280;SDS011;9266;51.132;17.062;2022-07-29T01:51:52;5.73;;;3.70;;
18280;SDS011;9266;51.132;17.062;2022-07-29T01:54:25;6.20;;;3.10;;
18280;SDS011;9266;51.132;17.062;2022-07-29T01:56:56;6.27;;;3.40;;
18280;SDS011;9266;51.132;17.062;2022-07-29T01:59:27;6.70;;;3.43;;
18280;SDS011;9266;51.132;17.062;2022-07-29T02:01:57;6.27;;;3.70;;
18280;SDS011;9266;51.132;17.062;2022-07-29T02:04:26;7.33;;;3.33;;
18280;SDS011;9266;51.132;17.062;2022-07-29T02:06:56;5.03;;;3.80;;
18280;SDS011;9266;51.132;17.062;2022-07-29T02:09:26;5.00;;;3.70;;
18280;SDS011;9266;51.132;17.062;2022-07-29T02:11:55;5.40;;;3.90;;
18280;SDS011;9266;51.132;17.062;2022-07-29T02:14:24;7.67;;;3.90;;
18280;SDS011;9266;51.132;17.062;2022-07-29T02:16:55;6.70;;;4.03;;
18280;SDS011;9266;51.132;17.062;2022-07-29T02:19:23;7.30;;;4.13;;
18280;SDS011;9266;51.132;17.062;2022-07-29T02:21:53;8.93;;;3.90;;
18280;SDS011;9266;51.132;17.062;2022-07-29T02:24:22;5.80;;;3.87;;
18280;SDS011;9266;51.132;17.062;2022-07-29T02:26:51;8.57;;;3.90;;
18280;SDS011;9266;51.132;17.062;2022-07-29T02:29:20;4.90;;;3.50;;
18280;SDS011;9266;51.132;17.062;2022-07-29T02:31:49;5.20;;;3.97;;
18280;SDS011;9266;51.132;17.062;2022-07-29T02:34:19;4.53;;;3.60;;
18280;SDS011;9266;51.132;17.062;2022-07-29T02:36:47;5.77;;;3.90;;
18280;SDS011;9266;51.132;17.062;2022-07-29T02:39:15;5.30;;;3.47;;
18280;SDS011;9266;51.132;17.062;2022-07-29T02:41:44;6.60;;;3.97;;
18280;SDS011;9266;51.132;17.062;2022-07-29T02:44:14;7.33;;;4.10;;
18280;SDS011;9266;51.132;17.062;2022-07-29T02:46:46;5.53;;;3.83;;
18280;SDS011;9266;51.132;17.062;2022-07-29T02:49:21;6.93;;;3.97;;
18280;SDS011;9266;51.132;17.062;2022-07-29T02:52:00;6.00;;;3.90;;
18280;SDS011;9266;51.132;17.062;2022-07-29T02:54:30;5.53;;;3.80;;
18280;SDS011;9266;51.132;17.062;2022-07-29T02:57:05;5.07;;;3.77;;
18280;SDS011;9266;51.132;17.062;2022-07-29T02:59:37;6.33;;;4.00;;
18280;SDS011;9266;51.132;17.062;2022-07-29T03:02:08;8.00;;;3.80;;
18280;SDS011;9266;51.132;17.062;2022-07-29T03:04:38;9.20;;;3.37;;
18280;SDS011;9266;51.132;17.062;2022-07-29T03:07:07;6.73;;;4.23;;
18280;SDS011;9266;51.132;17.062;2022-07-29T03:09:37;7.57;;;4.00;;
18280;SDS011;9266;51.132;17.062;2022-07-29T03:12:05;6.23;;;3.90;;
18280;SDS011;9266;51.132;17.062;2022-07-29T03:14:32;6.60;;;3.90;;
18280;SDS011;9266;51.132;17.062;2022-07-29T03:17:01;6.37;;;3.97;;
18280;SDS011;9266;51.132;17.062;2022-07-29T03:19:29;8.53;;;4.13;;
18280;SDS011;9266;51.132;17.062;2022-07-29T03:21:58;5.30;;;3.90;;
18280;SDS011;9266;51.132;17.062;2022-07-29T03:24:27;7.57;;;4.07;;
18280;SDS011;9266;51.132;17.062;2022-07-29T03:26:56;5.23;;;3.30;;
18280;SDS011;9266;51.132;17.062;2022-07-29T03:29:23;7.07;;;4.00;;
18280;SDS011;9266;51.132;17.062;2022-07-29T03:31:51;5.80;;;3.70;;
18280;SDS011;9266;51.132;17.062;2022-07-29T03:34:18;5.10;;;3.80;;
18280;SDS011;9266;51.132;17.062;2022-07-29T03:36:46;5.47;;;3.97;;
18280;SDS011;9266;51.132;17.062;2022-07-29T03:39:15;5.37;;;3.93;;
18280;SDS011;9266;51.132;17.062;2022-07-29T03:41:47;8.57;;;4.37;;
18280;SDS011;9266;51.132;17.062;2022-07-29T03:44:16;8.33;;;4.27;;
18280;SDS011;9266;51.132;17.062;2022-07-29T03:46:46;10.33;;;3.97;;
18280;SDS011;9266;51.132;17.062;2022-07-29T03:49:16;3.87;;;3.47;;
18280;SDS011;9266;51.132;17.062;2022-07-29T03:51:46;7.40;;;3.80;;
18280;SDS011;9266;51.132;17.062;2022-07-29T03:54:15;5.27;;;3.63;;
18280;SDS011;9266;51.132;17.062;2022-07-29T03:56:42;5.77;;;3.70;;
18280;SDS011;9266;51.132;17.062;2022-07-29T03:59:12;8.60;;;4.23;;
18280;SDS011;9266;51.132;17.062;2022-07-29T04:01:41;7.37;;;3.77;;
18280;SDS011;9266;51.132;17.062;2022-07-29T04:04:09;7.60;;;4.03;;
18280;SDS011;9266;51.132;17.062;2022-07-29T04:06:37;5.23;;;3.73;;
18280;SDS011;9266;51.132;17.062;2022-07-29T04:09:05;6.83;;;3.90;;
18280;SDS011;9266;51.132;17.062;2022-07-29T04:11:35;7.53;;;3.73;;
18280;SDS011;9266;51.132;17.062;2022-07-29T04:14:03;7.83;;;4.13;;
18280;SDS011;9266;51.132;17.062;2022-07-29T04:16:30;4.90;;;3.80;;
18280;SDS011;9266;51.132;17.062;2022-07-29T04:18:57;6.70;;;3.93;;
18280;SDS011;9266;51.132;17.062;2022-07-29T04:21:24;8.27;;;4.43;;
18280;SDS011;9266;51.132;17.062;2022-07-29T04:23:51;6.77;;;3.93;;
18280;SDS011;9266;51.132;17.062;2022-07-29T04:26:18;6.13;;;3.80;;
18280;SDS011;9266;51.132;17.062;2022-07-29T04:28:47;9.13;;;4.13;;
18280;SDS011;9266;51.132;17.062;2022-07-29T04:31:14;6.47;;;3.83;;
18280;SDS011;9266;51.132;17.062;2022-07-29T04:33:42;5.10;;;3.87;;
18280;SDS011;9266;51.132;17.062;2022-07-29T04:36:09;10.57;;;4.40;;
18280;SDS011;9266;51.132;17.062;2022-07-29T04:38:37;7.77;;;3.50;;
18280;SDS011;9266;51.132;17.062;2022-07-29T04:41:04;5.57;;;3.47;;
18280;SDS011;9266;51.132;17.062;2022-07-29T04:43:33;5.50;;;3.60;;
18280;SDS011;9266;51.132;17.062;2022-07-29T04:46:02;7.47;;;3.40;;
18280;SDS011;9266;51.132;17.062;2022-07-29T04:48:29;4.20;;;3.50;;
18280;SDS011;9266;51.132;17.062;2022-07-29T04:50:57;5.03;;;3.15;;
18280;SDS011;9266;51.132;17.062;2022-07-29T04:53:24;8.10;;;3.75;;
18280;SDS011;9266;51.132;17.062;2022-07-29T04:55:52;7.47;;;3.80;;
18280;SDS011;9266;51.132;17.062;2022-07-29T04:58:19;5.75;;;3.28;;
18280;SDS011;9266;51.132;17.062;2022-07-29T05:00:48;6.75;;;3.50;;
18280;SDS011;9266;51.132;17.062;2022-07-29T05:03:21;7.57;;;3.55;;
18280;SDS011;9266;51.132;17.062;2022-07-29T05:05:49;5.32;;;3.22;;
18280;SDS011;9266;51.132;17.062;2022-07-29T05:08:16;6.15;;;3.30;;
18280;SDS011;9266;51.132;17.062;2022-07-29T05:10:43;4.28;;;3.53;;
18280;SDS011;9266;51.132;17.062;2022-07-29T05:13:10;4.30;;;3.33;;
18280;SDS011;9266;51.132;17.062;2022-07-29T05:15:37;5.93;;;3.20;;
18280;SDS011;9266;51.132;17.062;2022-07-29T05:18:04;6.25;;;3.53;;
18280;SDS011;9266;51.132;17.062;2022-07-29T05:20:33;6.03;;;3.67;;
18280;SDS011;9266;51.132;17.062;2022-07-29T05:23:00;5.53;;;2.97;;
18280;SDS011;9266;51.132;17.062;2022-07-29T05:25:28;7.75;;;3.80;;
18280;SDS011;9266;51.132;17.062;2022-07-29T05:27:56;9.03;;;4.10;;
18280;SDS011;9266;51.132;17.062;2022-07-29T05:30:23;7.77;;;3.23;;
18280;SDS011;9266;51.132;17.062;2022-07-29T05:32:50;7.80;;;3.47;;
18280;SDS011;9266;51.132;17.062;2022-07-29T05:35:17;5.40;;;3.30;;
18280;SDS011;9266;51.132;17.062;2022-07-29T05:37:45;10.70;;;3.90;;
18280;SDS011;9266;51.132;17.062;2022-07-29T05:40:12;6.90;;;3.60;;
18280;SDS011;9266;51.132;17.062;2022-07-29T05:42:40;7.93;;;3.70;;
18280;SDS011;9266;51.132;17.062;2022-07-29T05:45:07;5.10;;;3.67;;
18280;SDS011;9266;51.132;17.062;2022-07-29T05:47:34;7.80;;;3.57;;
18280;SDS011;9266;51.132;17.062;2022-07-29T05:50:02;6.33;;;3.30;;
18280;SDS011;9266;51.132;17.062;2022-07-29T05:52:29;4.60;;;3.30;;
18280;SDS011;9266;51.132;17.062;2022-07-29T05:54:58;6.03;;;3.43;;
18280;SDS011;9266;51.132;17.062;2022-07-29T05:57:27;6.10;;;3.20;;
18280;SDS011;9266;51.132;17.062;2022-07-29T05:59:55;8.03;;;3.63;;
18280;SDS011;9266;51.132;17.062;2022-07-29T06:02:22;4.37;;;3.10;;
18280;SDS011;9266;51.132;17.062;2022-07-29T06:04:49;5.70;;;2.97;;
18280;SDS011;9266;51.132;17.062;2022-07-29T06:07:16;5.83;;;3.27;;
18280;SDS011;9266;51.132;17.062;2022-07-29T06:09:43;5.40;;;3.10;;
18280;SDS011;9266;51.132;17.062;2022-07-29T06:12:11;5.23;;;3.00;;
18280;SDS011;9266;51.132;17.062;2022-07-29T06:14:39;5.27;;;3.27;;
18280;SDS011;9266;51.132;17.062;2022-07-29T06:17:06;6.37;;;3.63;;
18280;SDS011;9266;51.132;17.062;2022-07-29T06:19:33;8.57;;;3.20;;
18280;SDS011;9266;51.132;17.062;2022-07-29T06:22:01;5.20;;;3.08;;
18280;SDS011;9266;51.132;17.062;2022-07-29T06:24:29;8.48;;;3.05;;
18280;SDS011;9266;51.132;17.062;2022-07-29T06:26:55;6.75;;;2.78;;
18280;SDS011;9266;51.132;17.062;2022-07-29T06:29:24;8.23;;;3.42;;
18280;SDS011;9266;51.132;17.062;2022-07-29T06:31:51;6.68;;;3.00;;
18280;SDS011;9266;51.132;17.062;2022-07-29T06:34:18;6.40;;;2.80;;
18280;SDS011;9266;51.132;17.062;2022-07-29T06:36:45;6.03;;;3.00;;
18280;SDS011;9266;51.132;17.062;2022-07-29T06:39:14;6.30;;;2.90;;
18280;SDS011;9266;51.132;17.062;2022-07-29T06:41:41;4.88;;;2.58;;
18280;SDS011;9266;51.132;17.062;2022-07-29T06:44:08;9.57;;;3.10;;
18280;SDS011;9266;51.132;17.062;2022-07-29T06:46:37;6.75;;;3.00;;
18280;SDS011;9266;51.132;17.062;2022-07-29T06:49:04;8.65;;;2.90;;
18280;SDS011;9266;51.132;17.062;2022-07-29T06:51:31;5.50;;;2.83;;
18280;SDS011;9266;51.132;17.062;2022-07-29T06:53:58;4.22;;;2.78;;
18280;SDS011;9266;51.132;17.062;2022-07-29T06:56:26;5.03;;;2.80;;
18280;SDS011;9266;51.132;17.062;2022-07-29T06:58:53;7.03;;;2.78;;
18280;SDS011;9266;51.132;17.062;2022-07-29T07:01:20;5.57;;;2.85;;
18280;SDS011;9266;51.132;17.062;2022-07-29T07:03:49;7.10;;;2.70;;
18280;SDS011;9266;51.132;17.062;2022-07-29T07:06:16;6.35;;;2.67;;
18280;SDS011;9266;51.132;17.062;2022-07-29T07:08:43;4.63;;;2.50;;
18280;SDS011;9266;51.132;17.062;2022-07-29T07:11:10;5.18;;;2.60;;
18280;SDS011;9266;51.132;17.062;2022-07-29T07:13:37;5.28;;;2.60;;
18280;SDS011;9266;51.132;17.062;2022-07-29T07:16:04;4.80;;;2.63;;
18280;SDS011;9266;51.132;17.062;2022-07-29T07:18:31;6.63;;;2.75;;
18280;SDS011;9266;51.132;17.062;2022-07-29T07:21:00;4.00;;;2.50;;
18280;SDS011;9266;51.132;17.062;2022-07-29T07:23:27;8.00;;;2.88;;
18280;SDS011;9266;51.132;17.062;2022-07-29T07:25:54;8.20;;;3.10;;
18280;SDS011;9266;51.132;17.062;2022-07-29T07:28:21;3.95;;;2.53;;
18280;SDS011;9266;51.132;17.062;2022-07-29T07:30:48;4.63;;;2.88;;
18280;SDS011;9266;51.132;17.062;2022-07-29T07:33:15;4.45;;;2.40;;
18280;SDS011;9266;51.132;17.062;2022-07-29T07:35:42;8.38;;;2.72;;
18280;SDS011;9266;51.132;17.062;2022-07-29T07:38:10;6.25;;;2.85;;
18280;SDS011;9266;51.132;17.062;2022-07-29T07:40:38;3.55;;;2.75;;
18280;SDS011;9266;51.132;17.062;2022-07-29T07:43:05;5.10;;;2.53;;
18280;SDS011;9266;51.132;17.062;2022-07-29T07:45:32;4.28;;;2.50;;
18280;SDS011;9266;51.132;17.062;2022-07-29T07:48:02;4.05;;;2.40;;
18280;SDS011;9266;51.132;17.062;2022-07-29T07:50:29;5.68;;;2.83;;
18280;SDS011;9266;51.132;17.062;2022-07-29T07:52:56;4.53;;;2.55;;
18280;SDS011;9266;51.132;17.062;2022-07-29T07:55:25;3.65;;;2.75;;
18280;SDS011;9266;51.132;17.062;2022-07-29T07:57:52;6.68;;;2.65;;
18280;SDS011;9266;51.132;17.062;2022-07-29T08:00:20;3.50;;;2.60;;
18280;SDS011;9266;51.132;17.062;2022-07-29T08:02:48;5.45;;;2.70;;
18280;SDS011;9266;51.132;17.062;2022-07-29T08:05:15;7.28;;;2.60;;
18280;SDS011;9266;51.132;17.062;2022-07-29T08:07:43;4.53;;;2.50;;
18280;SDS011;9266;51.132;17.062;2022-07-29T08:10:11;5.28;;;2.40;;
18280;SDS011;9266;51.132;17.062;2022-07-29T08:12:40;5.35;;;2.53;;
18280;SDS011;9266;51.132;17.062;2022-07-29T08:15:08;5.72;;;3.03;;
18280;SDS011;9266;51.132;17.062;2022-07-29T08:17:35;8.07;;;2.90;;
18280;SDS011;9266;51.132;17.062;2022-07-29T08:20:02;4.28;;;2.90;;
18280;SDS011;9266;51.132;17.062;2022-07-29T08:22:30;6.70;;;2.72;;
18280;SDS011;9266;51.132;17.062;2022-07-29T08:24:57;5.28;;;2.50;;
18280;SDS011;9266;51.132;17.062;2022-07-29T08:27:24;5.28;;;2.60;;
18280;SDS011;9266;51.132;17.062;2022-07-29T08:29:52;5.82;;;2.53;;
18280;SDS011;9266;51.132;17.062;2022-07-29T08:32:20;6.35;;;2.85;;
18280;SDS011;9266;51.132;17.062;2022-07-29T08:34:48;8.05;;;3.03;;
18280;SDS011;9266;51.132;17.062;2022-07-29T08:37:14;5.75;;;2.50;;
18280;SDS011;9266;51.132;17.062;2022-07-29T08:39:42;7.18;;;2.70;;
18280;SDS011;9266;51.132;17.062;2022-07-29T08:42:10;5.10;;;2.55;;
18280;SDS011;9266;51.132;17.062;2022-07-29T08:44:37;4.43;;;2.70;;
18280;SDS011;9266;51.132;17.062;2022-07-29T08:47:06;5.32;;;2.70;;
18280;SDS011;9266;51.132;17.062;2022-07-29T08:49:34;4.05;;;2.58;;
18280;SDS011;9266;51.132;17.062;2022-07-29T08:52:01;3.83;;;2.60;;
18280;SDS011;9266;51.132;17.062;2022-07-29T08:54:29;4.95;;;2.72;;
18280;SDS011;9266;51.132;17.062;2022-07-29T08:56:56;4.40;;;2.45;;
18280;SDS011;9266;51.132;17.062;2022-07-29T08:59:24;5.43;;;2.50;;
18280;SDS011;9266;51.132;17.062;2022-07-29T09:01:53;5.47;;;2.80;;
18280;SDS011;9266;51.132;17.062;2022-07-29T09:04:26;3.47;;;2.50;;
18280;SDS011;9266;51.132;17.062;2022-07-29T09:06:56;5.93;;;2.95;;
18280;SDS011;9266;51.132;17.062;2022-07-29T09:09:26;5.45;;;2.90;;
18280;SDS011;9266;51.132;17.062;2022-07-29T09:11:53;4.05;;;2.60;;
18280;SDS011;9266;51.132;17.062;2022-07-29T09:14:21;4.82;;;2.83;;
18280;SDS011;9266;51.132;17.062;2022-07-29T09:16:50;6.60;;;3.10;;
18280;SDS011;9266;51.132;17.062;2022-07-29T09:19:22;5.32;;;2.97;;
18280;SDS011;9266;51.132;17.062;2022-07-29T09:21:52;4.97;;;2.80;;
18280;SDS011;9266;51.132;17.062;2022-07-29T09:24:27;9.90;;;3.13;;
18280;SDS011;9266;51.132;17.062;2022-07-29T09:27:08;7.88;;;2.88;;
18280;SDS011;9266;51.132;17.062;2022-07-29T09:29:37;5.75;;;3.00;;
18280;SDS011;9266;51.132;17.062;2022-07-29T09:32:06;4.95;;;2.47;;
18280;SDS011;9266;51.132;17.062;2022-07-29T09:34:35;8.82;;;3.00;;
18280;SDS011;9266;51.132;17.062;2022-07-29T09:37:04;4.35;;;2.83;;
18280;SDS011;9266;51.132;17.062;2022-07-29T09:39:33;5.68;;;2.60;;
18280;SDS011;9266;51.132;17.062;2022-07-29T09:42:02;5.13;;;2.70;;
18280;SDS011;9266;51.132;17.062;2022-07-29T09:44:44;4.90;;;2.65;;
18280;SDS011;9266;51.132;17.062;2022-07-29T09:47:13;3.35;;;2.47;;
18280;SDS011;9266;51.132;17.062;2022-07-29T09:49:50;3.97;;;2.70;;
18280;SDS011;9266;51.132;17.062;2022-07-29T09:52:20;3.58;;;2.67;;
18280;SDS011;9266;51.132;17.062;2022-07-29T09:54:47;5.25;;;2.90;;
18280;SDS011;9266;51.132;17.062;2022-07-29T09:57:22;4.50;;;2.90;;
18280;SDS011;9266;51.132;17.062;2022-07-29T09:59:58;5.93;;;2.90;;
18280;SDS011;9266;51.132;17.062;2022-07-29T10:02:29;5.50;;;2.60;;
18280;SDS011;9266;51.132;17.062;2022-07-29T10:04:57;4.65;;;2.92;;
18280;SDS011;9266;51.132;17.062;2022-07-29T10:07:26;8.80;;;2.80;;
18280;SDS011;9266;51.132;17.062;2022-07-29T10:10:10;5.13;;;3.10;;
18280;SDS011;9266;51.132;17.062;2022-07-29T10:12:54;3.47;;;2.75;;
18280;SDS011;9266;51.132;17.062;2022-07-29T10:15:22;4.80;;;2.92;;
18280;SDS011;9266;51.132;17.062;2022-07-29T10:17:51;5.10;;;2.83;;
18280;SDS011;9266;51.132;17.062;2022-07-29T10:20:19;6.00;;;2.75;;
18280;SDS011;9266;51.132;17.062;2022-07-29T10:22:48;8.15;;;3.22;;
18280;SDS011;9266;51.132;17.062;2022-07-29T10:25:16;6.32;;;2.80;;
18280;SDS011;9266;51.132;17.062;2022-07-29T10:27:44;6.35;;;3.05;;
18280;SDS011;9266;51.132;17.062;2022-07-29T10:30:13;5.78;;;3.17;;
18280;SDS011;9266;51.132;17.062;2022-07-29T10:32:49;3.63;;;2.70;;
18280;SDS011;9266;51.132;17.062;2022-07-29T10:38:36;4.25;;;2.75;;
18280;SDS011;9266;51.132;17.062;2022-07-29T10:41:29;6.45;;;3.47;;
18280;SDS011;9266;51.132;17.062;2022-07-29T10:44:13;4.90;;;3.10;;
18280;SDS011;9266;51.132;17.062;2022-07-29T10:46:42;8.07;;;3.00;;
18280;SDS011;9266;51.132;17.062;2022-07-29T10:49:11;8.57;;;3.67;;
18280;SDS011;9266;51.132;17.062;2022-07-29T10:51:59;7.35;;;3.40;;
18280;SDS011;9266;51.132;17.062;2022-07-29T10:54:42;4.05;;;2.67;;
18280;SDS011;9266;51.132;17.062;2022-07-29T10:57:12;4.80;;;3.22;;
18280;SDS011;9266;51.132;17.062;2022-07-29T10:59:44;4.30;;;3.13;;
18280;SDS011;9266;51.132;17.062;2022-07-29T11:05:08;5.25;;;2.90;;
18280;SDS011;9266;51.132;17.062;2022-07-29T11:07:37;5.15;;;3.45;;
18280;SDS011;9266;51.132;17.062;2022-07-29T11:10:23;5.80;;;3.13;;
18280;SDS011;9266;51.132;17.062;2022-07-29T11:12:50;6.80;;;3.28;;
18280;SDS011;9266;51.132;17.062;2022-07-29T11:15:18;5.30;;;3.63;;
18280;SDS011;9266;51.132;17.062;2022-07-29T11:18:06;5.38;;;3.05;;
18280;SDS011;9266;51.132;17.062;2022-07-29T11:20:35;6.07;;;3.03;;
18280;SDS011;9266;51.132;17.062;2022-07-29T11:23:23;6.35;;;3.30;;
18280;SDS011;9266;51.132;17.062;2022-07-29T11:28:54;3.55;;;3.10;;
18280;SDS011;9266;51.132;17.062;2022-07-29T11:31:34;4.20;;;3.20;;
18280;SDS011;9266;51.132;17.062;2022-07-29T11:34:17;3.58;;;3.00;;
18280;SDS011;9266;51.132;17.062;2022-07-29T11:39:44;3.50;;;2.90;;
18280;SDS011;9266;51.132;17.062;2022-07-29T11:45:08;4.05;;;3.50;;
18280;SDS011;9266;51.132;17.062;2022-07-29T11:47:38;5.68;;;3.17;;
18280;SDS011;9266;51.132;17.062;2022-07-29T11:50:08;5.63;;;2.85;;
18280;SDS011;9266;51.132;17.062;2022-07-29T11:52:36;5.88;;;3.03;;
18280;SDS011;9266;51.132;17.062;2022-07-29T11:55:10;5.50;;;3.10;;
18280;SDS011;9266;51.132;17.062;2022-07-29T11:57:46;4.78;;;3.40;;
18280;SDS011;9266;51.132;17.062;2022-07-29T12:00:21;4.80;;;3.40;;
18280;SDS011;9266;51.132;17.062;2022-07-29T12:02:50;4.30;;;2.92;;
18280;SDS011;9266;51.132;17.062;2022-07-29T12:05:18;4.95;;;2.95;;
18280;SDS011;9266;51.132;17.062;2022-07-29T12:07:46;5.80;;;2.60;;
18280;SDS011;9266;51.132;17.062;2022-07-29T12:10:13;5.47;;;2.88;;
18280;SDS011;9266;51.132;17.062;2022-07-29T12:12:40;4.65;;;3.10;;
18280;SDS011;9266;51.132;17.062;2022-07-29T12:15:13;5.05;;;3.40;;
18280;SDS011;9266;51.132;17.062;2022-07-29T12:17:42;5.18;;;3.47;;
18280;SDS011;9266;51.132;17.062;2022-07-29T12:20:10;4.93;;;3.17;;
18280;SDS011;9266;51.132;17.062;2022-07-29T12:22:38;5.32;;;3.13;;
18280;SDS011;9266;51.132;17.062;2022-07-29T12:25:10;4.97;;;3.08;;
18280;SDS011;9266;51.132;17.062;2022-07-29T12:27:40;4.07;;;2.83;;
18280;SDS011;9266;51.132;17.062;2022-07-29T12:30:09;5.47;;;3.20;;
18280;SDS011;9266;51.132;17.062;2022-07-29T12:32:39;5.22;;;3.25;;
18280;SDS011;9266;51.132;17.062;2022-07-29T12:35:09;6.50;;;3.20;;
18280;SDS011;9266;51.132;17.062;2022-07-29T12:37:38;6.93;;;2.72;;
18280;SDS011;9266;51.132;17.062;2022-07-29T12:40:08;4.07;;;2.80;;
18280;SDS011;9266;51.132;17.062;2022-07-29T12:42:36;5.03;;;3.00;;
18280;SDS011;9266;51.132;17.062;2022-07-29T12:45:04;5.70;;;3.20;;
18280;SDS011;9266;51.132;17.062;2022-07-29T12:47:32;5.68;;;3.10;;
18280;SDS011;9266;51.132;17.062;2022-07-29T12:50:11;5.30;;;3.20;;
18280;SDS011;9266;51.132;17.062;2022-07-29T12:52:39;5.70;;;3.30;;
18280;SDS011;9266;51.132;17.062;2022-07-29T12:55:07;4.30;;;2.95;;
18280;SDS011;9266;51.132;17.062;2022-07-29T12:57:44;5.22;;;3.30;;
18280;SDS011;9266;51.132;17.062;2022-07-29T13:00:13;4.43;;;3.30;;
18280;SDS011;9266;51.132;17.062;2022-07-29T13:02:41;6.03;;;3.35;;
18280;SDS011;9266;51.132;17.062;2022-07-29T13:05:11;4.43;;;3.42;;
18280;SDS011;9266;51.132;17.062;2022-07-29T13:07:39;6.32;;;4.00;;
18280;SDS011;9266;51.132;17.062;2022-07-29T13:10:10;6.35;;;3.67;;
18280;SDS011;9266;51.132;17.062;2022-07-29T13:12:38;6.40;;;3.63;;
18280;SDS011;9266;51.132;17.062;2022-07-29T13:15:13;5.25;;;3.38;;
18280;SDS011;9266;51.132;17.062;2022-07-29T13:17:41;4.93;;;3.60;;
18280;SDS011;9266;51.132;17.062;2022-07-29T13:20:11;5.47;;;3.70;;
18280;SDS011;9266;51.132;17.062;2022-07-29T13:22:39;8.00;;;3.28;;
18280;SDS011;9266;51.132;17.062;2022-07-29T13:25:08;6.10;;;3.22;;
18280;SDS011;9266;51.132;17.062;2022-07-29T13:27:38;5.70;;;3.22;;
18280;SDS011;9266;51.132;17.062;2022-07-29T13:30:06;5.15;;;3.33;;
18280;SDS011;9266;51.132;17.062;2022-07-29T13:32:35;8.50;;;3.80;;
18280;SDS011;9266;51.132;17.062;2022-07-29T13:35:03;7.13;;;3.83;;
18280;SDS011;9266;51.132;17.062;2022-07-29T13:37:33;5.03;;;3.38;;
18280;SDS011;9266;51.132;17.062;2022-07-29T13:40:03;7.40;;;3.75;;
18280;SDS011;9266;51.132;17.062;2022-07-29T13:42:32;7.75;;;3.00;;
18280;SDS011;9266;51.132;17.062;2022-07-29T13:44:59;7.03;;;3.47;;
18280;SDS011;9266;51.132;17.062;2022-07-29T13:47:26;6.05;;;3.03;;
18280;SDS011;9266;51.132;17.062;2022-07-29T13:49:54;5.57;;;3.75;;
18280;SDS011;9266;51.132;17.062;2022-07-29T13:52:21;4.07;;;3.20;;
18280;SDS011;9266;51.132;17.062;2022-07-29T13:54:49;7.97;;;3.58;;
18280;SDS011;9266;51.132;17.062;2022-07-29T13:57:16;4.35;;;3.55;;
18280;SDS011;9266;51.132;17.062;2022-07-29T13:59:44;9.20;;;3.83;;
18280;SDS011;9266;51.132;17.062;2022-07-29T14:02:11;5.35;;;3.50;;
18280;SDS011;9266;51.132;17.062;2022-07-29T14:04:39;6.05;;;3.80;;
18280;SDS011;9266;51.132;17.062;2022-07-29T14:07:06;4.25;;;3.35;;
18280;SDS011;9266;51.132;17.062;2022-07-29T14:09:33;7.70;;;3.95;;
18280;SDS011;9266;51.132;17.062;2022-07-29T14:12:02;4.95;;;3.85;;
18280;SDS011;9266;51.132;17.062;2022-07-29T14:14:29;5.95;;;3.55;;
18280;SDS011;9266;51.132;17.062;2022-07-29T14:16:57;6.28;;;3.70;;
18280;SDS011;9266;51.132;17.062;2022-07-29T14:19:24;7.65;;;3.60;;
18280;SDS011;9266;51.132;17.062;2022-07-29T14:21:52;4.85;;;3.78;;
18280;SDS011;9266;51.132;17.062;2022-07-29T14:24:19;4.43;;;3.67;;
18280;SDS011;9266;51.132;17.062;2022-07-29T14:26:46;10.77;;;3.78;;
18280;SDS011;9266;51.132;17.062;2022-07-29T14:29:15;5.20;;;3.72;;
18280;SDS011;9266;51.132;17.062;2022-07-29T14:31:42;5.90;;;4.38;;
18280;SDS011;9266;51.132;17.062;2022-07-29T14:34:09;4.93;;;3.65;;
18280;SDS011;9266;51.132;17.062;2022-07-29T14:36:36;4.63;;;3.58;;
18280;SDS011;9266;51.132;17.062;2022-07-29T14:39:03;8.52;;;3.97;;
18280;SDS011;9266;51.132;17.062;2022-07-29T14:41:30;6.72;;;3.90;;
18280;SDS011;9266;51.132;17.062;2022-07-29T14:43:57;4.97;;;3.47;;
18280;SDS011;9266;51.132;17.062;2022-07-29T14:46:27;6.43;;;3.67;;
18280;SDS011;9266;51.132;17.062;2022-07-29T14:48:54;7.72;;;4.35;;
18280;SDS011;9266;51.132;17.062;2022-07-29T14:51:21;6.40;;;3.88;;
18280;SDS011;9266;51.132;17.062;2022-07-29T14:53:48;8.27;;;4.47;;
18280;SDS011;9266;51.132;17.062;2022-07-29T14:56:15;6.57;;;4.35;;
18280;SDS011;9266;51.132;17.062;2022-07-29T14:58:42;5.57;;;3.67;;
18280;SDS011;9266;51.132;17.062;2022-07-29T15:01:09;6.22;;;3.42;;
18280;SDS011;9266;51.132;17.062;2022-07-29T15:03:43;5.82;;;3.50;;
18280;SDS011;9266;51.132;17.062;2022-07-29T15:06:10;8.70;;;3.80;;
18280;SDS011;9266;51.132;17.062;2022-07-29T15:08:38;6.78;;;3.75;;
18280;SDS011;9266;51.132;17.062;2022-07-29T15:11:05;7.15;;;3.60;;
18280;SDS011;9266;51.132;17.062;2022-07-29T15:13:33;8.82;;;4.10;;
18280;SDS011;9266;51.132;17.062;2022-07-29T15:16:00;5.68;;;3.75;;
18280;SDS011;9266;51.132;17.062;2022-07-29T15:18:27;4.88;;;3.53;;